Main page
METAR-TAF:

METAR-TAF

Airports :

Urmia Airport

Urmia, Iran

latitude: 37-32N, longitude: 045-05E, elevation: 1297 m

Current weather observation

The report was made 10 minutes ago, at 03:00 UTC
Wind 6 kt from the West/Northwest
Temperature 17°C
Humidity 68%
Pressure 1014 hPa
Visibility 10 km or more
no clouds below 1500 m and no cumulonimbus

METAR: OITR 240300Z 30006KT CAVOK 17/11 Q1014 NOSIG

Time: 07:40 (03:10 UTC)

Forecast

The report was made 4 hours and 10 minutes ago, at 23:00 UTC
Forecast valid from 24 at 00 UTC to 25 at 06 UTC
Wind 8 kt from the East/Northeast
Visibility: 8000 m
Few clouds at a height of 4000 ft
Temporary
from 24 at 08 UTC to 24 at 14 UTC
Wind 12 kt from the East/Northeast

TAF: OITR 232300Z 2400/2506 06004MPS 8000 FEW040 TEMPO 2408/2414 07006MPS

Weather observations and forecasts of more than 4000 airports (METAR and TAF reports).

The available stations are represented by yellow and red dots on the map.

Hover mouse over dot to see the name of the station.

Then click to see weather observations and forecasts.

To change the map : click on the green buttons with a black cross to zoom in, on the green button with a dash to zoom out, or on the green arrows for adjacent maps.


METAR-TAF: